Hlavní strana
METAR-TAF:

METAR-TAF

Letiště :

Nižnij Novgorod, Rusko

zeměpisná šířka: 56-19-48N, zeměpisná délka: 044-00E, výška: 78 m

Aktuální stav počasí

Zpráva byla vytvořena před 16 minutami, v 05:00 UTC
Západoseverozápadní vítr 4 kt, proměnlivý mezi západním a severoseverozápadním
Teplota 2°C
Vlhkost vzduchu 60%
Tlak 1019 hPa
Viditelnost 10 km a více
Žádná oblačnost pod 1500 m, nevyskytují se cumulonimby.

METAR: UWGG 050500Z 30002MPS 270V340 CAVOK 02/M05 Q1019 R36R/090060 NOSIG

Čas: 08:16 (05:16 UTC)

Předpověď počasí

Zpráva byla vytvořena před 3 hodinami a 17 minutami, v 01:59 UTC
Předpověď platná od 05 v 03 UTC do 06 v 03 UTC
Západní vítr 6 kt
Viditelnost 10 km a více
Polojasno ve výšce 1600 ft
Dočasný
od 05 v 09 UTC do 05 v 24 UTC
Západoseverozápadní vítr 12 kt s nárazy do 25 kt
Viditelnost: 3200 m
Oblačno až skoro zataženo ve výšce 1100 ft, Cumulonimbus.
slabé dešťové přeháňky

TAF: UWGG 050159Z 0503/0603 27003MPS 9999 SCT016 TX06/0512Z TNM02/0503Z TEMPO 0509/0524 30006G13MPS 3200 -SHRA BKN011CB

Stav a předpovědi počasí z více než 4 000 letišť (zprávy METAR a TAF).

Červené a žluté tečky na mapě představují dostupné meteorologické stanice.

Když kurzor umístíte na tečku, zobrazí se název stanice.

Pak kliknutím zobrazíte stav a předpověď počasí.

Chcete-li změnit mapu, kliknutím na zelené tlačítko se znaménkem +mapu přiblížíte, kliknutím na zelené tlačítko se znaménkem – mapu oddálíte a kliknutím na zelené šipky přejdete na sousední mapy.


METAR-TAF: